Арка

Карта отелей и гостиниц, располагающихся рядом с аэропортом Арка :



Арка Хабаровский край 60° 6' 6.0804" N, 142° 18' 6.48" E

Арка Хабаровский край 60° 6' 6.0804" N, 142° 18' 6.48" E
Код аэродрома ИКАО: 
UHOA
Код аэродрома RU: 
УХОА
Координаты: 
N60.10169° E142.30180°
Превышение над уровнем моря : 
230
Основная полоса: 
16/34
Курс магнитный: 
156,8/336,8
Длина основной ВПП: 
859
Ширина основной ВПП: 
60
Покрытие основной ВПП: 
Нетвёрдое (грунт)
Тип: 
Аэродром
Освещение ВПП: 
Нет
Класс аэродрома: 
Статус: 
Действующий
Принадлежность: 
ГА
Сайт: 
E-mail аэродрома: 
Страна: 
Россия
Регион: 
Хабаровский край
Город: 
Дополнительная информация: 
Горный.

Найти трансфер

С помощью этой формы Вы можете найти трансфер из аэропорта Арка в город, аэропорт или вокзал:

Карта места

Javascript is required to view this map.

Погода в аэропортах:

Авиационная погода в Ивало

Регион: 
Погода METAR: 
EFIV 210350Z AUTO 19010KT 150V220 9999 -SHSN OVC014 M05/M08 Q0987
Время наблюдения: 
2020-02-21T03:50:00Z
Температура C: 
-5.0
Точка росы: 
-8.0
Направление ветра: 
190
Скорость ветра: 
10
Метеорологическая видимость: 
6.21
Явления погоды: 
-SHSN
Условия полета: 
MVFR

Авиационная погода в Дашогузе

Регион: 
Погода METAR: 
UTAT 210400Z 21004KT 9999 -RA OVC100 05/01 Q1012 R08/19//60 NOSIG
Время наблюдения: 
2020-02-21T04:00:00Z
Температура C: 
5.0
Точка росы: 
1.0
Направление ветра: 
210
Скорость ветра: 
4
Метеорологическая видимость: 
6.21
Явления погоды: 
-RA
Условия полета: 
VFR

Авиационная погода в Ургенче

Регион: 
Погода METAR: 
UTNU 210400Z 00000KT 7000 -SHRA OVC066CB 04/02 Q1011 R31/290250 NOSIG
Время наблюдения: 
2020-02-21T04:00:00Z
Температура C: 
4.0
Точка росы: 
2.0
Направление ветра: 
0
Скорость ветра: 
0
Метеорологическая видимость: 
4.35
Явления погоды: 
-SHRA
Условия полета: 
MVFR

Авиационная погода в Череповце

Регион: 
Погода METAR: 
ULWC 210400Z 00000MPS 2200 -SNRA BR OVC002 00/M00 Q1016 R21/490150 BECMG 3100 BR BKN003 RMK QBB060 QFE752/1003
Время наблюдения: 
2020-02-21T04:00:00Z
Температура C: 
0.0
Точка росы: 
0.0
Направление ветра: 
0
Скорость ветра: 
0
Метеорологическая видимость: 
1.37
Явления погоды: 
-SN -RA BR
Условия полета: 
LIFR
Аэропорт подробнее: